sensor_id;sensor_type;location;lat;lon;timestamp;P1;durP1;ratioP1;P2;durP2;ratioP2
928;SDS011;451;47.988;7.842;2023-05-21T00:02:15;23.73;;;17.87;;
928;SDS011;451;47.988;7.842;2023-05-21T00:11:20;22.23;;;19.67;;
928;SDS011;451;47.988;7.842;2023-05-21T00:20:23;21.97;;;19.47;;
928;SDS011;451;47.988;7.842;2023-05-21T00:29:27;21.80;;;19.43;;
928;SDS011;451;47.988;7.842;2023-05-21T00:38:31;26.90;;;19.50;;
928;SDS011;451;47.988;7.842;2023-05-21T00:47:35;19.93;;;17.87;;
928;SDS011;451;47.988;7.842;2023-05-21T00:56:39;20.03;;;16.60;;
928;SDS011;451;47.988;7.842;2023-05-21T01:05:44;22.70;;;18.80;;
928;SDS011;451;47.988;7.842;2023-05-21T01:14:49;21.70;;;18.27;;
928;SDS011;451;47.988;7.842;2023-05-21T01:23:55;20.90;;;18.40;;
928;SDS011;451;47.988;7.842;2023-05-21T01:33:00;22.93;;;19.77;;
928;SDS011;451;47.988;7.842;2023-05-21T01:42:08;24.47;;;20.20;;
928;SDS011;451;47.988;7.842;2023-05-21T01:51:12;24.83;;;20.07;;
928;SDS011;451;47.988;7.842;2023-05-21T02:00:17;26.17;;;20.20;;
928;SDS011;451;47.988;7.842;2023-05-21T02:09:21;24.47;;;20.13;;
928;SDS011;451;47.988;7.842;2023-05-21T02:18:26;23.10;;;18.90;;
928;SDS011;451;47.988;7.842;2023-05-21T02:27:29;24.73;;;18.63;;
928;SDS011;451;47.988;7.842;2023-05-21T02:36:34;22.13;;;18.00;;
928;SDS011;451;47.988;7.842;2023-05-21T02:45:37;20.33;;;17.77;;
928;SDS011;451;47.988;7.842;2023-05-21T02:54:42;25.33;;;19.30;;
928;SDS011;451;47.988;7.842;2023-05-21T03:03:45;25.30;;;17.90;;
928;SDS011;451;47.988;7.842;2023-05-21T03:12:50;20.40;;;17.50;;
928;SDS011;451;47.988;7.842;2023-05-21T03:21:54;21.67;;;17.53;;
928;SDS011;451;47.988;7.842;2023-05-21T03:30:59;24.40;;;18.10;;
928;SDS011;451;47.988;7.842;2023-05-21T03:40:38;22.37;;;19.07;;
928;SDS011;451;47.988;7.842;2023-05-21T03:49:43;19.53;;;17.43;;
928;SDS011;451;47.988;7.842;2023-05-21T03:58:46;21.63;;;18.33;;
928;SDS011;451;47.988;7.842;2023-05-21T04:07:51;20.80;;;17.40;;
928;SDS011;451;47.988;7.842;2023-05-21T04:16:54;22.73;;;18.57;;
928;SDS011;451;47.988;7.842;2023-05-21T04:25:59;22.97;;;17.93;;
928;SDS011;451;47.988;7.842;2023-05-21T04:35:04;22.87;;;19.87;;
928;SDS011;451;47.988;7.842;2023-05-21T04:44:09;29.70;;;21.83;;
928;SDS011;451;47.988;7.842;2023-05-21T04:53:16;30.07;;;22.73;;
928;SDS011;451;47.988;7.842;2023-05-21T05:02:21;29.23;;;22.50;;
928;SDS011;451;47.988;7.842;2023-05-21T05:11:25;36.00;;;25.67;;
928;SDS011;451;47.988;7.842;2023-05-21T05:20:29;28.30;;;22.27;;
928;SDS011;451;47.988;7.842;2023-05-21T05:29:32;25.37;;;20.37;;
928;SDS011;451;47.988;7.842;2023-05-21T05:38:37;22.23;;;19.70;;
928;SDS011;451;47.988;7.842;2023-05-21T05:47:42;21.33;;;19.03;;
928;SDS011;451;47.988;7.842;2023-05-21T05:56:47;26.77;;;21.90;;
928;SDS011;451;47.988;7.842;2023-05-21T06:05:51;27.27;;;20.93;;
928;SDS011;451;47.988;7.842;2023-05-21T06:14:56;31.43;;;23.70;;
928;SDS011;451;47.988;7.842;2023-05-21T06:23:59;35.67;;;27.20;;
928;SDS011;451;47.988;7.842;2023-05-21T06:33:05;31.93;;;25.27;;
928;SDS011;451;47.988;7.842;2023-05-21T06:42:10;30.40;;;25.23;;
928;SDS011;451;47.988;7.842;2023-05-21T06:51:32;31.70;;;26.30;;
928;SDS011;451;47.988;7.842;2023-05-21T07:00:35;31.83;;;25.50;;
928;SDS011;451;47.988;7.842;2023-05-21T07:09:40;31.57;;;24.27;;
928;SDS011;451;47.988;7.842;2023-05-21T07:18:44;31.70;;;22.90;;
928;SDS011;451;47.988;7.842;2023-05-21T07:27:49;29.87;;;25.67;;
928;SDS011;451;47.988;7.842;2023-05-21T07:36:52;28.80;;;24.63;;
928;SDS011;451;47.988;7.842;2023-05-21T07:45:57;28.93;;;22.00;;
928;SDS011;451;47.988;7.842;2023-05-21T07:55:03;27.40;;;22.53;;
928;SDS011;451;47.988;7.842;2023-05-21T08:04:11;29.83;;;23.63;;
928;SDS011;451;47.988;7.842;2023-05-21T08:13:15;34.10;;;26.13;;
928;SDS011;451;47.988;7.842;2023-05-21T08:22:22;39.60;;;29.87;;
928;SDS011;451;47.988;7.842;2023-05-21T08:31:25;27.90;;;23.70;;
928;SDS011;451;47.988;7.842;2023-05-21T08:40:31;26.80;;;22.17;;
928;SDS011;451;47.988;7.842;2023-05-21T08:49:34;29.17;;;23.67;;
928;SDS011;451;47.988;7.842;2023-05-21T08:58:39;27.07;;;22.40;;
928;SDS011;451;47.988;7.842;2023-05-21T09:07:46;24.53;;;21.93;;
928;SDS011;451;47.988;7.842;2023-05-21T09:17:04;26.50;;;22.50;;
928;SDS011;451;47.988;7.842;2023-05-21T09:26:09;25.87;;;23.27;;
928;SDS011;451;47.988;7.842;2023-05-21T09:35:16;24.80;;;22.33;;
928;SDS011;451;47.988;7.842;2023-05-21T09:44:19;24.97;;;22.30;;
928;SDS011;451;47.988;7.842;2023-05-21T09:53:23;23.97;;;20.63;;
928;SDS011;451;47.988;7.842;2023-05-21T10:02:26;22.60;;;20.23;;
928;SDS011;451;47.988;7.842;2023-05-21T10:11:33;24.23;;;19.77;;
928;SDS011;451;47.988;7.842;2023-05-21T10:20:37;22.40;;;20.00;;
928;SDS011;451;47.988;7.842;2023-05-21T10:29:42;24.50;;;20.10;;
928;SDS011;451;47.988;7.842;2023-05-21T10:38:46;24.63;;;22.00;;
928;SDS011;451;47.988;7.842;2023-05-21T10:47:59;22.97;;;20.77;;
928;SDS011;451;47.988;7.842;2023-05-21T10:57:16;24.60;;;22.17;;
928;SDS011;451;47.988;7.842;2023-05-21T11:06:35;24.80;;;22.27;;
928;SDS011;451;47.988;7.842;2023-05-21T11:25:16;22.10;;;20.00;;
928;SDS011;451;47.988;7.842;2023-05-21T11:34:21;23.60;;;21.23;;
928;SDS011;451;47.988;7.842;2023-05-21T11:43:30;21.57;;;19.40;;
928;SDS011;451;47.988;7.842;2023-05-21T11:52:33;23.70;;;21.30;;
928;SDS011;451;47.988;7.842;2023-05-21T12:01:37;23.43;;;21.03;;
928;SDS011;451;47.988;7.842;2023-05-21T12:10:40;23.43;;;21.13;;
928;SDS011;451;47.988;7.842;2023-05-21T12:19:45;21.17;;;18.97;;
928;SDS011;451;47.988;7.842;2023-05-21T12:28:49;22.43;;;20.23;;
928;SDS011;451;47.988;7.842;2023-05-21T12:37:53;20.00;;;17.90;;
928;SDS011;451;47.988;7.842;2023-05-21T12:46:57;20.00;;;18.10;;
928;SDS011;451;47.988;7.842;2023-05-21T12:56:07;22.30;;;19.97;;
928;SDS011;451;47.988;7.842;2023-05-21T13:05:14;20.90;;;19.03;;
928;SDS011;451;47.988;7.842;2023-05-21T13:14:20;20.10;;;18.20;;
928;SDS011;451;47.988;7.842;2023-05-21T13:23:23;20.63;;;18.53;;
928;SDS011;451;47.988;7.842;2023-05-21T13:32:27;19.63;;;17.73;;
928;SDS011;451;47.988;7.842;2023-05-21T13:41:30;19.87;;;17.60;;
928;SDS011;451;47.988;7.842;2023-05-21T13:50:35;18.90;;;17.10;;
928;SDS011;451;47.988;7.842;2023-05-21T13:59:38;21.23;;;19.20;;
928;SDS011;451;47.988;7.842;2023-05-21T14:08:43;19.37;;;17.47;;
928;SDS011;451;47.988;7.842;2023-05-21T14:17:46;19.33;;;17.40;;
928;SDS011;451;47.988;7.842;2023-05-21T14:26:50;18.70;;;16.80;;
928;SDS011;451;47.988;7.842;2023-05-21T14:35:53;19.97;;;17.93;;
928;SDS011;451;47.988;7.842;2023-05-21T14:44:57;20.83;;;18.60;;
928;SDS011;451;47.988;7.842;2023-05-21T14:54:00;19.57;;;17.73;;
928;SDS011;451;47.988;7.842;2023-05-21T15:03:05;17.40;;;15.80;;
928;SDS011;451;47.988;7.842;2023-05-21T15:12:08;17.90;;;16.10;;
928;SDS011;451;47.988;7.842;2023-05-21T15:21:12;17.53;;;16.03;;
928;SDS011;451;47.988;7.842;2023-05-21T15:30:15;18.07;;;16.37;;
928;SDS011;451;47.988;7.842;2023-05-21T15:39:20;18.80;;;17.20;;
928;SDS011;451;47.988;7.842;2023-05-21T15:48:23;19.23;;;17.33;;
928;SDS011;451;47.988;7.842;2023-05-21T15:57:28;18.97;;;17.03;;
928;SDS011;451;47.988;7.842;2023-05-21T16:06:31;13.60;;;12.40;;
928;SDS011;451;47.988;7.842;2023-05-21T16:15:36;13.33;;;8.33;;
928;SDS011;451;47.988;7.842;2023-05-21T16:24:39;24.57;;;11.63;;
928;SDS011;451;47.988;7.842;2023-05-21T16:33:44;14.73;;;11.10;;
928;SDS011;451;47.988;7.842;2023-05-21T16:42:47;15.07;;;9.83;;
928;SDS011;451;47.988;7.842;2023-05-21T16:51:51;11.73;;;9.63;;
928;SDS011;451;47.988;7.842;2023-05-21T17:00:54;13.00;;;8.80;;
928;SDS011;451;47.988;7.842;2023-05-21T17:09:59;14.20;;;10.80;;
928;SDS011;451;47.988;7.842;2023-05-21T17:19:04;14.67;;;13.17;;
928;SDS011;451;47.988;7.842;2023-05-21T17:28:08;10.43;;;8.50;;
928;SDS011;451;47.988;7.842;2023-05-21T17:37:11;13.00;;;9.53;;
928;SDS011;451;47.988;7.842;2023-05-21T17:46:18;13.07;;;8.77;;
928;SDS011;451;47.988;7.842;2023-05-21T17:55:22;11.10;;;8.47;;
928;SDS011;451;47.988;7.842;2023-05-21T18:04:26;10.70;;;7.83;;
928;SDS011;451;47.988;7.842;2023-05-21T18:13:29;9.30;;;8.37;;
928;SDS011;451;47.988;7.842;2023-05-21T18:22:34;10.73;;;9.30;;
928;SDS011;451;47.988;7.842;2023-05-21T18:31:37;9.40;;;8.47;;
928;SDS011;451;47.988;7.842;2023-05-21T18:40:42;12.80;;;10.80;;
928;SDS011;451;47.988;7.842;2023-05-21T18:49:45;11.60;;;9.70;;
928;SDS011;451;47.988;7.842;2023-05-21T18:58:49;9.43;;;7.73;;
928;SDS011;451;47.988;7.842;2023-05-21T19:07:52;9.77;;;8.50;;
928;SDS011;451;47.988;7.842;2023-05-21T19:16:57;10.13;;;8.73;;
928;SDS011;451;47.988;7.842;2023-05-21T19:26:00;10.70;;;9.07;;
928;SDS011;451;47.988;7.842;2023-05-21T19:35:05;9.50;;;8.20;;
928;SDS011;451;47.988;7.842;2023-05-21T19:44:09;10.10;;;9.10;;
928;SDS011;451;47.988;7.842;2023-05-21T19:53:13;9.87;;;8.83;;
928;SDS011;451;47.988;7.842;2023-05-21T20:02:16;10.50;;;9.50;;
928;SDS011;451;47.988;7.842;2023-05-21T20:11:20;15.90;;;9.90;;
928;SDS011;451;47.988;7.842;2023-05-21T20:20:24;11.80;;;10.37;;
928;SDS011;451;47.988;7.842;2023-05-21T20:29:29;10.77;;;8.30;;
928;SDS011;451;47.988;7.842;2023-05-21T20:38:32;11.97;;;8.17;;
928;SDS011;451;47.988;7.842;2023-05-21T20:47:38;10.37;;;9.13;;
928;SDS011;451;47.988;7.842;2023-05-21T20:56:42;11.07;;;8.30;;
928;SDS011;451;47.988;7.842;2023-05-21T21:05:47;10.10;;;8.37;;
928;SDS011;451;47.988;7.842;2023-05-21T21:14:50;12.37;;;9.13;;
928;SDS011;451;47.988;7.842;2023-05-21T21:23:54;11.00;;;9.17;;
928;SDS011;451;47.988;7.842;2023-05-21T21:32:57;10.60;;;9.50;;
928;SDS011;451;47.988;7.842;2023-05-21T21:42:02;11.00;;;9.60;;
928;SDS011;451;47.988;7.842;2023-05-21T21:51:05;12.13;;;9.23;;
928;SDS011;451;47.988;7.842;2023-05-21T22:00:11;11.20;;;9.20;;
928;SDS011;451;47.988;7.842;2023-05-21T22:09:20;12.80;;;9.77;;
928;SDS011;451;47.988;7.842;2023-05-21T22:18:25;11.00;;;9.83;;
928;SDS011;451;47.988;7.842;2023-05-21T22:27:28;10.97;;;9.53;;
928;SDS011;451;47.988;7.842;2023-05-21T22:36:33;10.90;;;9.80;;
928;SDS011;451;47.988;7.842;2023-05-21T22:45:39;10.60;;;9.37;;
928;SDS011;451;47.988;7.842;2023-05-21T22:54:44;10.93;;;9.43;;
928;SDS011;451;47.988;7.842;2023-05-21T23:03:47;11.10;;;9.07;;
928;SDS011;451;47.988;7.842;2023-05-21T23:12:51;10.63;;;9.20;;
928;SDS011;451;47.988;7.842;2023-05-21T23:21:54;12.10;;;10.70;;
928;SDS011;451;47.988;7.842;2023-05-21T23:30:59;13.03;;;10.50;;
928;SDS011;451;47.988;7.842;2023-05-21T23:40:02;13.10;;;10.50;;
928;SDS011;451;47.988;7.842;2023-05-21T23:49:07;12.47;;;10.73;;
928;SDS011;451;47.988;7.842;2023-05-21T23:58:10;11.10;;;10.00;;
